sensor_id;sensor_type;location;lat;lon;timestamp;pressure;altitude;pressure_sealevel;temperature;humidity
61324;BME280;47203;48.428;11.974;2023-04-06T00:02:10;97043.00;;;5.29;38.16
61324;BME280;47203;48.428;11.974;2023-04-06T00:04:15;97042.63;;;5.25;38.14
61324;BME280;47203;48.428;11.974;2023-04-06T00:06:22;97042.53;;;5.20;38.20
61324;BME280;47203;48.428;11.974;2023-04-06T00:08:28;97049.78;;;5.18;38.19
61324;BME280;47203;48.428;11.974;2023-04-06T00:10:33;97043.75;;;5.18;38.16
61324;BME280;47203;48.428;11.974;2023-04-06T00:12:38;97040.38;;;5.17;38.23
61324;BME280;47203;48.428;11.974;2023-04-06T00:14:43;97039.34;;;5.18;38.30
61324;BME280;47203;48.428;11.974;2023-04-06T00:16:48;97043.19;;;5.16;38.36
61324;BME280;47203;48.428;11.974;2023-04-06T00:18:53;97039.78;;;5.15;38.45
61324;BME280;47203;48.428;11.974;2023-04-06T00:20:57;97042.03;;;5.12;38.45
61324;BME280;47203;48.428;11.974;2023-04-06T00:23:05;97049.06;;;5.11;38.39
61324;BME280;47203;48.428;11.974;2023-04-06T00:25:10;97035.22;;;5.11;38.58
61324;BME280;47203;48.428;11.974;2023-04-06T00:27:17;97041.25;;;5.11;38.68
61324;BME280;47203;48.428;11.974;2023-04-06T00:29:22;97037.81;;;5.11;38.71
61324;BME280;47203;48.428;11.974;2023-04-06T00:31:27;97034.44;;;5.10;38.63
61324;BME280;47203;48.428;11.974;2023-04-06T00:33:32;97044.66;;;5.12;38.74
61324;BME280;47203;48.428;11.974;2023-04-06T00:35:37;97036.25;;;5.10;38.77
61324;BME280;47203;48.428;11.974;2023-04-06T00:37:42;97038.88;;;5.10;38.67
61324;BME280;47203;48.428;11.974;2023-04-06T00:39:49;97035.44;;;5.09;38.75
61324;BME280;47203;48.428;11.974;2023-04-06T00:41:56;97037.03;;;5.10;38.70
61324;BME280;47203;48.428;11.974;2023-04-06T00:44:02;97040.66;;;5.09;38.67
61324;BME280;47203;48.428;11.974;2023-04-06T00:46:07;97040.88;;;5.07;38.75
61324;BME280;47203;48.428;11.974;2023-04-06T00:48:13;97044.50;;;5.06;38.58
61324;BME280;47203;48.428;11.974;2023-04-06T00:50:18;97041.78;;;5.01;38.86
61324;BME280;47203;48.428;11.974;2023-04-06T00:52:23;97037.88;;;4.92;38.68
61324;BME280;47203;48.428;11.974;2023-04-06T00:54:28;97040.00;;;4.83;38.83
61324;BME280;47203;48.428;11.974;2023-04-06T00:56:37;97033.84;;;4.78;39.06
61324;BME280;47203;48.428;11.974;2023-04-06T00:58:42;97034.06;;;4.76;39.09
61324;BME280;47203;48.428;11.974;2023-04-06T01:00:47;97041.50;;;4.72;39.08
61324;BME280;47203;48.428;11.974;2023-04-06T03:57:41;97036.22;;;3.48;40.28
61324;BME280;47203;48.428;11.974;2023-04-06T03:59:47;97027.81;;;3.46;40.13
61324;BME280;47203;48.428;11.974;2023-04-06T04:01:51;97039.25;;;3.45;40.25
61324;BME280;47203;48.428;11.974;2023-04-06T04:03:57;97038.41;;;3.44;40.28
61324;BME280;47203;48.428;11.974;2023-04-06T04:06:05;97043.84;;;3.43;40.32
61324;BME280;47203;48.428;11.974;2023-04-06T04:08:10;97039.06;;;3.40;40.46
61324;BME280;47203;48.428;11.974;2023-04-06T04:10:16;97041.88;;;3.38;40.22
61324;BME280;47203;48.428;11.974;2023-04-06T04:12:21;97046.50;;;3.36;40.22
61324;BME280;47203;48.428;11.974;2023-04-06T04:14:28;97039.69;;;3.35;40.16
61324;BME280;47203;48.428;11.974;2023-04-06T04:16:33;97045.69;;;3.36;40.47
61324;BME280;47203;48.428;11.974;2023-04-06T04:18:38;97039.69;;;3.35;40.40
61324;BME280;47203;48.428;11.974;2023-04-06T04:20:45;97043.09;;;3.36;40.24
61324;BME280;47203;48.428;11.974;2023-04-06T04:22:53;97041.94;;;3.31;40.38
61324;BME280;47203;48.428;11.974;2023-04-06T04:24:59;97049.34;;;3.28;40.46
61324;BME280;47203;48.428;11.974;2023-04-06T04:27:05;97047.72;;;3.27;40.40
61324;BME280;47203;48.428;11.974;2023-04-06T04:29:12;97055.16;;;3.23;40.37
61324;BME280;47203;48.428;11.974;2023-04-06T04:31:20;97047.38;;;3.23;40.48
61324;BME280;47203;48.428;11.974;2023-04-06T04:33:29;97049.75;;;3.25;40.46
61324;BME280;47203;48.428;11.974;2023-04-06T04:35:37;97052.34;;;3.25;40.47
61324;BME280;47203;48.428;11.974;2023-04-06T04:37:45;97054.97;;;3.25;40.57
61324;BME280;47203;48.428;11.974;2023-04-06T04:39:50;97045.97;;;3.21;40.68
61324;BME280;47203;48.428;11.974;2023-04-06T04:41:55;97045.97;;;3.21;40.50
61324;BME280;47203;48.428;11.974;2023-04-06T04:44:00;97054.56;;;3.21;40.64
61324;BME280;47203;48.428;11.974;2023-04-06T04:46:05;97050.38;;;3.20;40.73
61324;BME280;47203;48.428;11.974;2023-04-06T04:48:19;97057.59;;;3.18;40.77
61324;BME280;47203;48.428;11.974;2023-04-06T04:50:27;97058.41;;;3.19;40.79
61324;BME280;47203;48.428;11.974;2023-04-06T04:52:33;97048.78;;;3.19;40.64
61324;BME280;47203;48.428;11.974;2023-04-06T04:54:56;97057.00;;;3.16;40.66
61324;BME280;47203;48.428;11.974;2023-04-06T04:57:03;97056.00;;;3.17;40.82
61324;BME280;47203;48.428;11.974;2023-04-06T04:59:18;97056.00;;;3.17;40.95
61324;BME280;47203;48.428;11.974;2023-04-06T05:01:30;97052.38;;;3.18;40.94
61324;BME280;47203;48.428;11.974;2023-04-06T05:03:54;97051.19;;;3.21;40.96
61324;BME280;47203;48.428;11.974;2023-04-06T05:05:59;97049.19;;;3.23;40.82
61324;BME280;47203;48.428;11.974;2023-04-06T05:08:08;97051.56;;;3.24;40.86
61324;BME280;47203;48.428;11.974;2023-04-06T05:10:19;97056.78;;;3.24;41.10
61324;BME280;47203;48.428;11.974;2023-04-06T05:12:29;97059.16;;;3.26;40.88
61324;BME280;47203;48.428;11.974;2023-04-06T05:14:39;97054.19;;;3.24;41.05
61324;BME280;47203;48.428;11.974;2023-04-06T05:16:48;97063.19;;;3.22;40.97
61324;BME280;47203;48.428;11.974;2023-04-06T05:18:59;97062.56;;;3.20;40.96
61324;BME280;47203;48.428;11.974;2023-04-06T05:21:13;97051.38;;;3.19;41.06
61324;BME280;47203;48.428;11.974;2023-04-06T05:23:38;97060.59;;;3.15;41.36
61324;BME280;47203;48.428;11.974;2023-04-06T05:25:43;97058.81;;;3.16;41.11
61324;BME280;47203;48.428;11.974;2023-04-06T05:27:55;97061.63;;;3.14;41.31
61324;BME280;47203;48.428;11.974;2023-04-06T05:30:06;97062.63;;;3.13;41.45
61324;BME280;47203;48.428;11.974;2023-04-06T05:32:17;97067.00;;;3.12;41.35
61324;BME280;47203;48.428;11.974;2023-04-06T05:34:28;97057.59;;;3.18;41.36
61324;BME280;47203;48.428;11.974;2023-04-06T05:36:37;97061.97;;;3.24;41.48
61324;BME280;47203;48.428;11.974;2023-04-06T05:38:51;97066.56;;;3.29;41.56
61324;BME280;47203;48.428;11.974;2023-04-06T05:41:14;97071.53;;;3.30;41.43
61324;BME280;47203;48.428;11.974;2023-04-06T05:43:19;97074.09;;;3.37;41.27
61324;BME280;47203;48.428;11.974;2023-04-06T05:45:28;97072.25;;;3.44;41.58
61324;BME280;47203;48.428;11.974;2023-04-06T05:47:34;97073.22;;;3.50;41.44
61324;BME280;47203;48.428;11.974;2023-04-06T05:49:53;97069.97;;;3.55;41.55
61324;BME280;47203;48.428;11.974;2023-04-06T05:52:06;97070.75;;;3.62;41.44
61324;BME280;47203;48.428;11.974;2023-04-06T05:54:11;97066.28;;;3.69;41.71
61324;BME280;47203;48.428;11.974;2023-04-06T05:56:17;97077.88;;;3.73;41.61
61324;BME280;47203;48.428;11.974;2023-04-06T05:58:22;97086.66;;;3.79;41.59
61324;BME280;47203;48.428;11.974;2023-04-06T06:00:28;97079.59;;;3.86;41.67
61324;BME280;47203;48.428;11.974;2023-04-06T06:02:39;97082.34;;;3.91;41.68
61324;BME280;47203;48.428;11.974;2023-04-06T06:04:53;97077.88;;;3.98;41.70
61324;BME280;47203;48.428;11.974;2023-04-06T06:07:00;97074.03;;;4.08;41.71
61324;BME280;47203;48.428;11.974;2023-04-06T06:09:17;97076.34;;;4.16;41.90
61324;BME280;47203;48.428;11.974;2023-04-06T06:11:41;97082.09;;;4.25;42.00
61324;BME280;47203;48.428;11.974;2023-04-06T06:13:49;97079.44;;;4.31;41.99
61324;BME280;47203;48.428;11.974;2023-04-06T06:15:54;97083.00;;;4.37;42.07
61324;BME280;47203;48.428;11.974;2023-04-06T06:18:00;97074.50;;;4.42;42.17
61324;BME280;47203;48.428;11.974;2023-04-06T06:20:09;97072.84;;;4.47;42.26
61324;BME280;47203;48.428;11.974;2023-04-06T06:22:14;97081.97;;;4.57;42.32
61324;BME280;47203;48.428;11.974;2023-04-06T06:24:21;97072.28;;;4.64;42.22
61324;BME280;47203;48.428;11.974;2023-04-06T06:26:26;97069.97;;;4.74;42.25
61324;BME280;47203;48.428;11.974;2023-04-06T06:28:33;97079.91;;;4.84;42.23
61324;BME280;47203;48.428;11.974;2023-04-06T06:30:38;97077.56;;;4.94;42.26
61324;BME280;47203;48.428;11.974;2023-04-06T06:32:43;97088.28;;;5.04;42.21
61324;BME280;47203;48.428;11.974;2023-04-06T06:34:48;97089.22;;;5.10;42.08
61324;BME280;47203;48.428;11.974;2023-04-06T06:36:56;97086.75;;;5.15;42.22
61324;BME280;47203;48.428;11.974;2023-04-06T06:39:01;97078.06;;;5.21;42.11
61324;BME280;47203;48.428;11.974;2023-04-06T06:41:07;97081.78;;;5.25;41.84
61324;BME280;47203;48.428;11.974;2023-04-06T06:43:12;97085.34;;;5.31;41.75
61324;BME280;47203;48.428;11.974;2023-04-06T06:45:26;97087.50;;;5.34;41.90
61324;BME280;47203;48.428;11.974;2023-04-06T06:47:31;97087.41;;;5.41;42.03
61324;BME280;47203;48.428;11.974;2023-04-06T06:49:36;97084.28;;;5.51;42.20
61324;BME280;47203;48.428;11.974;2023-04-06T06:51:41;97081.72;;;5.63;42.06
61324;BME280;47203;48.428;11.974;2023-04-06T06:53:48;97079.91;;;5.75;42.04
61324;BME280;47203;48.428;11.974;2023-04-06T06:55:53;97082.31;;;5.88;42.03
61324;BME280;47203;48.428;11.974;2023-04-06T06:57:58;97081.56;;;6.00;41.60
61324;BME280;47203;48.428;11.974;2023-04-06T07:00:05;97087.84;;;6.10;41.76
61324;BME280;47203;48.428;11.974;2023-04-06T07:02:14;97087.88;;;6.22;41.58
61324;BME280;47203;48.428;11.974;2023-04-06T07:04:19;97096.50;;;6.35;41.51
61324;BME280;47203;48.428;11.974;2023-04-06T07:06:24;97093.31;;;6.44;41.51
61324;BME280;47203;48.428;11.974;2023-04-06T07:08:29;97084.00;;;6.49;41.49
61324;BME280;47203;48.428;11.974;2023-04-06T07:10:37;97088.88;;;6.57;41.48
61324;BME280;47203;48.428;11.974;2023-04-06T07:12:42;97088.53;;;6.65;41.42
61324;BME280;47203;48.428;11.974;2023-04-06T07:14:47;97084.28;;;6.76;41.41
61324;BME280;47203;48.428;11.974;2023-04-06T07:16:52;97088.94;;;6.86;41.29
61324;BME280;47203;48.428;11.974;2023-04-06T07:18:57;97086.06;;;6.99;41.34
61324;BME280;47203;48.428;11.974;2023-04-06T07:21:03;97082.16;;;7.13;41.24
61324;BME280;47203;48.428;11.974;2023-04-06T07:23:08;97079.50;;;7.25;41.29
61324;BME280;47203;48.428;11.974;2023-04-06T07:25:13;97085.03;;;7.41;41.32
61324;BME280;47203;48.428;11.974;2023-04-06T07:27:21;97096.34;;;7.58;41.24
61324;BME280;47203;48.428;11.974;2023-04-06T07:29:26;97084.84;;;7.76;41.35
61324;BME280;47203;48.428;11.974;2023-04-06T07:31:31;97088.28;;;7.94;41.06
61324;BME280;47203;48.428;11.974;2023-04-06T07:33:39;97087.25;;;8.12;41.06
61324;BME280;47203;48.428;11.974;2023-04-06T07:35:44;97083.59;;;8.30;40.89
61324;BME280;47203;48.428;11.974;2023-04-06T07:37:49;97086.66;;;8.44;40.80
61324;BME280;47203;48.428;11.974;2023-04-06T07:39:54;97090.81;;;8.56;40.42
61324;BME280;47203;48.428;11.974;2023-04-06T07:41:59;97088.81;;;8.64;40.20
61324;BME280;47203;48.428;11.974;2023-04-06T07:44:07;97084.72;;;8.73;39.96
61324;BME280;47203;48.428;11.974;2023-04-06T07:46:12;97083.53;;;8.81;39.76
61324;BME280;47203;48.428;11.974;2023-04-06T07:48:17;97078.41;;;8.91;39.63
61324;BME280;47203;48.428;11.974;2023-04-06T07:50:23;97081.19;;;9.06;39.39
61324;BME280;47203;48.428;11.974;2023-04-06T07:52:29;97076.66;;;9.24;39.40
61324;BME280;47203;48.428;11.974;2023-04-06T07:54:37;97073.72;;;9.42;39.20
61324;BME280;47203;48.428;11.974;2023-04-06T07:56:42;97078.66;;;9.66;39.25
61324;BME280;47203;48.428;11.974;2023-04-06T07:58:46;97078.59;;;9.88;39.27
61324;BME280;47203;48.428;11.974;2023-04-06T08:00:57;97072.16;;;10.06;39.16
61324;BME280;47203;48.428;11.974;2023-04-06T08:03:02;97072.00;;;10.23;39.00
61324;BME280;47203;48.428;11.974;2023-04-06T08:05:08;97068.75;;;10.38;39.06
61324;BME280;47203;48.428;11.974;2023-04-06T08:07:13;97071.69;;;10.47;39.08
61324;BME280;47203;48.428;11.974;2023-04-06T08:09:19;97070.19;;;10.67;39.06
61324;BME280;47203;48.428;11.974;2023-04-06T08:11:23;97072.94;;;10.87;39.13
61324;BME280;47203;48.428;11.974;2023-04-06T08:13:28;97069.59;;;11.07;39.05
61324;BME280;47203;48.428;11.974;2023-04-06T08:15:33;97067.56;;;11.35;39.28
61324;BME280;47203;48.428;11.974;2023-04-06T08:17:41;97063.38;;;11.65;38.97
61324;BME280;47203;48.428;11.974;2023-04-06T08:19:46;97073.97;;;11.96;38.69
61324;BME280;47203;48.428;11.974;2023-04-06T08:21:51;97067.41;;;12.14;38.59
61324;BME280;47203;48.428;11.974;2023-04-06T08:23:56;97076.09;;;12.30;38.05
61324;BME280;47203;48.428;11.974;2023-04-06T08:26:01;97072.63;;;12.45;37.86
61324;BME280;47203;48.428;11.974;2023-04-06T08:28:06;97073.88;;;12.73;37.79
61324;BME280;47203;48.428;11.974;2023-04-06T08:30:11;97071.38;;;13.07;37.12
61324;BME280;47203;48.428;11.974;2023-04-06T08:32:17;97070.75;;;13.36;36.75
61324;BME280;47203;48.428;11.974;2023-04-06T08:34:24;97066.66;;;13.59;35.93
61324;BME280;47203;48.428;11.974;2023-04-06T08:36:30;97075.19;;;13.86;35.93
61324;BME280;47203;48.428;11.974;2023-04-06T08:38:35;97071.47;;;14.16;35.44
61324;BME280;47203;48.428;11.974;2023-04-06T08:40:40;97074.41;;;14.44;35.26
61324;BME280;47203;48.428;11.974;2023-04-06T08:42:50;97074.19;;;14.70;35.00
61324;BME280;47203;48.428;11.974;2023-04-06T08:44:55;97075.53;;;14.91;34.36
61324;BME280;47203;48.428;11.974;2023-04-06T08:47:00;97076.63;;;15.09;33.89
61324;BME280;47203;48.428;11.974;2023-04-06T08:49:05;97070.34;;;15.24;33.65
61324;BME280;47203;48.428;11.974;2023-04-06T08:51:14;97068.78;;;15.42;33.24
61324;BME280;47203;48.428;11.974;2023-04-06T08:53:19;97067.44;;;15.64;33.56
61324;BME280;47203;48.428;11.974;2023-04-06T08:55:25;97068.72;;;15.85;32.67
61324;BME280;47203;48.428;11.974;2023-04-06T08:57:31;97076.47;;;16.15;32.46
61324;BME280;47203;48.428;11.974;2023-04-06T08:59:37;97071.41;;;16.32;32.40
61324;BME280;47203;48.428;11.974;2023-04-06T09:01:43;97070.53;;;16.51;32.03
61324;BME280;47203;48.428;11.974;2023-04-06T09:03:49;97075.88;;;16.65;31.60
61324;BME280;47203;48.428;11.974;2023-04-06T09:05:56;97077.94;;;16.68;32.46
61324;BME280;47203;48.428;11.974;2023-04-06T09:08:04;97075.09;;;16.64;33.23
61324;BME280;47203;48.428;11.974;2023-04-06T09:10:09;97079.22;;;16.56;32.96
61324;BME280;47203;48.428;11.974;2023-04-06T09:12:22;97078.69;;;16.40;33.04
61324;BME280;47203;48.428;11.974;2023-04-06T09:14:34;97065.97;;;16.23;33.50
61324;BME280;47203;48.428;11.974;2023-04-06T09:16:40;97066.41;;;15.98;33.93
61324;BME280;47203;48.428;11.974;2023-04-06T09:18:46;97062.03;;;15.88;33.31
61324;BME280;47203;48.428;11.974;2023-04-06T09:20:57;97063.03;;;15.73;32.35
61324;BME280;47203;48.428;11.974;2023-04-06T09:23:04;97053.88;;;15.65;33.82
61324;BME280;47203;48.428;11.974;2023-04-06T09:25:18;97064.66;;;15.55;34.74
61324;BME280;47203;48.428;11.974;2023-04-06T09:27:31;97064.56;;;15.41;33.31
61324;BME280;47203;48.428;11.974;2023-04-06T09:29:36;97057.53;;;15.31;33.78
61324;BME280;47203;48.428;11.974;2023-04-06T09:31:41;97064.31;;;15.18;33.54
61324;BME280;47203;48.428;11.974;2023-04-06T09:33:46;97064.56;;;14.98;32.51
61324;BME280;47203;48.428;11.974;2023-04-06T09:35:51;97059.75;;;14.81;32.65
61324;BME280;47203;48.428;11.974;2023-04-06T09:37:56;97061.25;;;14.63;33.18
61324;BME280;47203;48.428;11.974;2023-04-06T09:40:07;97054.03;;;14.44;33.87
61324;BME280;47203;48.428;11.974;2023-04-06T09:42:23;97052.25;;;14.35;34.31
61324;BME280;47203;48.428;11.974;2023-04-06T09:44:30;97055.47;;;14.31;35.23
61324;BME280;47203;48.428;11.974;2023-04-06T09:46:36;97065.28;;;14.31;34.48
61324;BME280;47203;48.428;11.974;2023-04-06T09:48:59;97055.78;;;14.25;33.85
61324;BME280;47203;48.428;11.974;2023-04-06T09:51:06;97054.81;;;14.16;33.12
61324;BME280;47203;48.428;11.974;2023-04-06T09:53:14;97058.41;;;14.01;33.72
61324;BME280;47203;48.428;11.974;2023-04-06T09:55:26;97066.78;;;13.78;33.13
61324;BME280;47203;48.428;11.974;2023-04-06T09:57:35;97058.22;;;13.52;34.18
61324;BME280;47203;48.428;11.974;2023-04-06T09:59:46;97051.38;;;13.46;33.72
61324;BME280;47203;48.428;11.974;2023-04-06T10:01:55;97052.94;;;13.47;33.34
61324;BME280;47203;48.428;11.974;2023-04-06T10:04:11;97047.88;;;13.56;34.30
61324;BME280;47203;48.428;11.974;2023-04-06T10:06:21;97046.69;;;13.72;33.42
61324;BME280;47203;48.428;11.974;2023-04-06T10:08:28;97046.63;;;13.83;33.13
61324;BME280;47203;48.428;11.974;2023-04-06T10:10:36;97049.25;;;13.83;32.97
61324;BME280;47203;48.428;11.974;2023-04-06T10:12:41;97039.75;;;13.82;32.90
61324;BME280;47203;48.428;11.974;2023-04-06T10:14:48;97046.38;;;13.79;33.10
61324;BME280;47203;48.428;11.974;2023-04-06T10:16:54;97044.31;;;13.76;33.21
61324;BME280;47203;48.428;11.974;2023-04-06T10:19:05;97043.19;;;13.82;33.46
61324;BME280;47203;48.428;11.974;2023-04-06T10:21:14;97036.78;;;13.88;32.84
61324;BME280;47203;48.428;11.974;2023-04-06T10:23:26;97034.56;;;14.01;32.85
61324;BME280;47203;48.428;11.974;2023-04-06T10:25:32;97033.91;;;14.14;33.36
61324;BME280;47203;48.428;11.974;2023-04-06T10:27:40;97033.53;;;14.26;34.68
61324;BME280;47203;48.428;11.974;2023-04-06T10:29:46;97029.94;;;14.41;34.64
61324;BME280;47203;48.428;11.974;2023-04-06T10:31:51;97027.16;;;14.56;34.04
61324;BME280;47203;48.428;11.974;2023-04-06T10:33:59;97022.25;;;14.69;33.49
61324;BME280;47203;48.428;11.974;2023-04-06T10:36:11;97027.72;;;14.77;32.21
61324;BME280;47203;48.428;11.974;2023-04-06T10:38:16;97027.97;;;14.81;32.95
61324;BME280;47203;48.428;11.974;2023-04-06T10:40:24;97026.38;;;14.80;33.02
61324;BME280;47203;48.428;11.974;2023-04-06T10:42:36;97021.06;;;14.80;32.62
61324;BME280;47203;48.428;11.974;2023-04-06T10:44:44;97015.78;;;14.80;32.38
61324;BME280;47203;48.428;11.974;2023-04-06T10:46:55;97021.84;;;14.80;32.38
61324;BME280;47203;48.428;11.974;2023-04-06T10:49:11;97022.13;;;14.79;31.91
61324;BME280;47203;48.428;11.974;2023-04-06T10:51:17;97016.25;;;14.82;32.08
61324;BME280;47203;48.428;11.974;2023-04-06T10:53:23;97015.72;;;14.85;31.81
61324;BME280;47203;48.428;11.974;2023-04-06T10:55:29;97015.94;;;14.89;31.46
61324;BME280;47203;48.428;11.974;2023-04-06T10:57:34;97018.00;;;14.92;32.10
61324;BME280;47203;48.428;11.974;2023-04-06T10:59:44;97017.66;;;14.98;32.56
61324;BME280;47203;48.428;11.974;2023-04-06T11:01:49;97005.06;;;15.09;32.10
61324;BME280;47203;48.428;11.974;2023-04-06T11:03:56;97017.09;;;15.21;32.35
61324;BME280;47203;48.428;11.974;2023-04-06T11:06:02;97003.72;;;15.31;31.94
61324;BME280;47203;48.428;11.974;2023-04-06T11:08:07;97009.94;;;15.40;32.11
61324;BME280;47203;48.428;11.974;2023-04-06T11:10:21;97000.75;;;15.51;31.93
61324;BME280;47203;48.428;11.974;2023-04-06T11:12:27;97002.75;;;15.60;31.62
61324;BME280;47203;48.428;11.974;2023-04-06T11:14:32;97006.13;;;15.65;31.13
61324;BME280;47203;48.428;11.974;2023-04-06T11:16:40;96996.56;;;15.64;31.34
61324;BME280;47203;48.428;11.974;2023-04-06T11:18:49;96991.28;;;15.64;31.38
61324;BME280;47203;48.428;11.974;2023-04-06T11:20:54;96991.47;;;15.68;31.45
61324;BME280;47203;48.428;11.974;2023-04-06T11:22:59;96993.53;;;15.71;31.15
61324;BME280;47203;48.428;11.974;2023-04-06T11:25:07;96991.25;;;15.83;31.45
61324;BME280;47203;48.428;11.974;2023-04-06T11:27:12;96988.72;;;15.92;30.87
61324;BME280;47203;48.428;11.974;2023-04-06T11:29:19;96985.09;;;16.02;30.56
61324;BME280;47203;48.428;11.974;2023-04-06T11:31:25;96981.47;;;16.12;30.73
61324;BME280;47203;48.428;11.974;2023-04-06T11:33:37;96979.81;;;16.16;30.34
61324;BME280;47203;48.428;11.974;2023-04-06T11:35:42;96989.34;;;16.17;31.03
61324;BME280;47203;48.428;11.974;2023-04-06T11:37:49;96977.25;;;16.11;30.19
61324;BME280;47203;48.428;11.974;2023-04-06T11:39:55;96977.63;;;16.04;30.06
61324;BME280;47203;48.428;11.974;2023-04-06T11:42:01;96974.78;;;16.00;30.04
61324;BME280;47203;48.428;11.974;2023-04-06T11:44:10;96971.22;;;15.91;29.91
61324;BME280;47203;48.428;11.974;2023-04-06T11:46:18;96970.66;;;15.75;29.76
61324;BME280;47203;48.428;11.974;2023-04-06T11:48:23;96970.50;;;15.52;29.49
61324;BME280;47203;48.428;11.974;2023-04-06T11:50:34;96972.75;;;15.26;29.60
61324;BME280;47203;48.428;11.974;2023-04-06T11:52:39;96976.13;;;15.13;29.92
61324;BME280;47203;48.428;11.974;2023-04-06T11:54:45;96975.75;;;15.00;29.61
61324;BME280;47203;48.428;11.974;2023-04-06T11:56:53;96972.22;;;14.86;29.63
61324;BME280;47203;48.428;11.974;2023-04-06T11:58:58;96962.28;;;14.78;29.31
61324;BME280;47203;48.428;11.974;2023-04-06T12:01:04;96967.59;;;14.78;29.39
61324;BME280;47203;48.428;11.974;2023-04-06T12:03:09;96966.00;;;14.77;30.01
61324;BME280;47203;48.428;11.974;2023-04-06T12:05:14;96958.63;;;14.74;31.21
61324;BME280;47203;48.428;11.974;2023-04-06T12:07:21;96953.09;;;14.70;30.68
61324;BME280;47203;48.428;11.974;2023-04-06T12:09:26;96954.22;;;14.64;30.07
61324;BME280;47203;48.428;11.974;2023-04-06T12:11:32;96954.34;;;14.54;29.93
61324;BME280;47203;48.428;11.974;2023-04-06T12:13:36;96947.56;;;14.42;30.06
61324;BME280;47203;48.428;11.974;2023-04-06T12:15:41;96947.38;;;14.39;30.61
61324;BME280;47203;48.428;11.974;2023-04-06T12:17:46;96950.78;;;14.39;30.62
61324;BME280;47203;48.428;11.974;2023-04-06T12:19:54;96943.56;;;14.45;31.14
61324;BME280;47203;48.428;11.974;2023-04-06T12:22:10;96946.22;;;14.45;30.93
61324;BME280;47203;48.428;11.974;2023-04-06T12:24:17;96942.56;;;14.41;31.20
61324;BME280;47203;48.428;11.974;2023-04-06T12:26:22;96942.84;;;14.39;31.03
61324;BME280;47203;48.428;11.974;2023-04-06T12:28:27;96940.47;;;14.38;30.76
61324;BME280;47203;48.428;11.974;2023-04-06T12:30:34;96934.13;;;14.39;30.87
61324;BME280;47203;48.428;11.974;2023-04-06T12:32:39;96940.16;;;14.44;31.01
61324;BME280;47203;48.428;11.974;2023-04-06T12:34:44;96942.22;;;14.47;30.36
61324;BME280;47203;48.428;11.974;2023-04-06T12:36:49;96929.00;;;14.47;30.45
61324;BME280;47203;48.428;11.974;2023-04-06T12:38:54;96932.13;;;14.49;30.49
61324;BME280;47203;48.428;11.974;2023-04-06T12:41:03;96930.78;;;14.52;30.30
61324;BME280;47203;48.428;11.974;2023-04-06T12:43:07;96931.50;;;14.58;30.13
61324;BME280;47203;48.428;11.974;2023-04-06T12:45:14;96931.78;;;14.56;30.21
61324;BME280;47203;48.428;11.974;2023-04-06T12:47:20;96933.09;;;14.59;30.16
61324;BME280;47203;48.428;11.974;2023-04-06T12:49:25;96926.16;;;14.63;29.99
61324;BME280;47203;48.428;11.974;2023-04-06T12:51:33;96927.47;;;14.65;29.77
61324;BME280;47203;48.428;11.974;2023-04-06T12:53:38;96925.53;;;14.71;29.84
61324;BME280;47203;48.428;11.974;2023-04-06T12:55:43;96914.06;;;14.76;29.62
61324;BME280;47203;48.428;11.974;2023-04-06T12:57:50;96915.09;;;14.80;29.38
61324;BME280;47203;48.428;11.974;2023-04-06T12:59:56;96913.72;;;14.82;29.61
61324;BME280;47203;48.428;11.974;2023-04-06T13:02:03;96913.94;;;14.86;29.60
61324;BME280;47203;48.428;11.974;2023-04-06T13:04:08;96910.41;;;14.91;29.58
61324;BME280;47203;48.428;11.974;2023-04-06T13:06:13;96902.75;;;14.89;29.32
61324;BME280;47203;48.428;11.974;2023-04-06T13:08:19;96912.81;;;14.92;29.65
61324;BME280;47203;48.428;11.974;2023-04-06T13:10:23;96903.47;;;14.95;29.38
61324;BME280;47203;48.428;11.974;2023-04-06T13:12:28;96907.41;;;14.97;29.24
61324;BME280;47203;48.428;11.974;2023-04-06T13:14:36;96905.84;;;14.96;29.05
61324;BME280;47203;48.428;11.974;2023-04-06T13:16:41;96899.25;;;14.94;29.11
61324;BME280;47203;48.428;11.974;2023-04-06T13:18:47;96900.91;;;14.90;28.86
61324;BME280;47203;48.428;11.974;2023-04-06T13:20:52;96894.13;;;14.83;28.78
61324;BME280;47203;48.428;11.974;2023-04-06T13:22:58;96898.13;;;14.81;29.01
61324;BME280;47203;48.428;11.974;2023-04-06T13:25:04;96889.94;;;14.77;28.80
61324;BME280;47203;48.428;11.974;2023-04-06T13:27:08;96892.59;;;14.77;28.97
61324;BME280;47203;48.428;11.974;2023-04-06T13:29:13;96897.13;;;14.77;29.17
61324;BME280;47203;48.428;11.974;2023-04-06T13:31:21;96887.38;;;14.72;29.01
61324;BME280;47203;48.428;11.974;2023-04-06T13:33:26;96891.09;;;14.71;29.03
61324;BME280;47203;48.428;11.974;2023-04-06T13:35:31;96896.97;;;14.68;29.24
61324;BME280;47203;48.428;11.974;2023-04-06T13:37:37;96896.72;;;14.64;29.21
61324;BME280;47203;48.428;11.974;2023-04-06T13:39:42;96888.28;;;14.62;29.19
61324;BME280;47203;48.428;11.974;2023-04-06T13:41:47;96880.34;;;14.62;29.36
61324;BME280;47203;48.428;11.974;2023-04-06T13:43:54;96885.06;;;14.65;29.23
61324;BME280;47203;48.428;11.974;2023-04-06T13:45:59;96874.47;;;14.65;28.85
61324;BME280;47203;48.428;11.974;2023-04-06T13:48:07;96881.66;;;14.65;29.17
61324;BME280;47203;48.428;11.974;2023-04-06T13:50:12;96871.06;;;14.65;29.29
61324;BME280;47203;48.428;11.974;2023-04-06T13:52:17;96872.88;;;14.64;28.98
61324;BME280;47203;48.428;11.974;2023-04-06T13:54:22;96872.41;;;14.62;28.79
61324;BME280;47203;48.428;11.974;2023-04-06T13:56:27;96872.94;;;14.59;28.85
61324;BME280;47203;48.428;11.974;2023-04-06T13:58:32;96870.34;;;14.54;28.66
61324;BME280;47203;48.428;11.974;2023-04-06T14:00:38;96871.59;;;14.43;28.39
61324;BME280;47203;48.428;11.974;2023-04-06T14:02:43;96872.50;;;14.33;28.39
61324;BME280;47203;48.428;11.974;2023-04-06T14:04:51;96869.41;;;14.26;28.84